sensor_id;sensor_type;location;lat;lon;timestamp;temperature;humidity
26803;DHT22;14378;51.796;5.808;2023-02-18T00:05:25;11.50;99.90
26803;DHT22;14378;51.796;5.808;2023-02-18T00:07:28;11.50;99.90
26803;DHT22;14378;51.796;5.808;2023-02-18T00:09:33;11.50;99.90
26803;DHT22;14378;51.796;5.808;2023-02-18T00:11:35;11.50;99.90
26803;DHT22;14378;51.796;5.808;2023-02-18T00:13:36;11.50;99.90
26803;DHT22;14378;51.796;5.808;2023-02-18T00:15:38;11.50;99.90
26803;DHT22;14378;51.796;5.808;2023-02-18T00:17:39;11.50;99.90
26803;DHT22;14378;51.796;5.808;2023-02-18T00:19:45;11.50;99.90
26803;DHT22;14378;51.796;5.808;2023-02-18T00:21:48;11.50;99.90
26803;DHT22;14378;51.796;5.808;2023-02-18T00:23:50;11.50;99.90
26803;DHT22;14378;51.796;5.808;2023-02-18T00:26:07;11.50;99.90
26803;DHT22;14378;51.796;5.808;2023-02-18T00:28:08;11.50;99.90
26803;DHT22;14378;51.796;5.808;2023-02-18T00:30:09;11.50;99.90
26803;DHT22;14378;51.796;5.808;2023-02-18T00:32:10;11.50;99.90
26803;DHT22;14378;51.796;5.808;2023-02-18T00:34:12;11.50;99.90
26803;DHT22;14378;51.796;5.808;2023-02-18T00:36:16;11.50;99.90
26803;DHT22;14378;51.796;5.808;2023-02-18T00:38:17;11.60;99.90
26803;DHT22;14378;51.796;5.808;2023-02-18T00:40:19;11.60;99.90
26803;DHT22;14378;51.796;5.808;2023-02-18T00:42:20;11.60;99.90
26803;DHT22;14378;51.796;5.808;2023-02-18T00:44:21;11.70;99.90
26803;DHT22;14378;51.796;5.808;2023-02-18T00:46:23;11.60;99.90
26803;DHT22;14378;51.796;5.808;2023-02-18T00:48:24;11.60;99.90
26803;DHT22;14378;51.796;5.808;2023-02-18T00:50:26;11.60;99.90
26803;DHT22;14378;51.796;5.808;2023-02-18T00:52:27;11.60;99.90
26803;DHT22;14378;51.796;5.808;2023-02-18T00:54:27;11.60;99.90
26803;DHT22;14378;51.796;5.808;2023-02-18T00:56:28;11.60;99.90
26803;DHT22;14378;51.796;5.808;2023-02-18T00:58:29;11.60;99.90
26803;DHT22;14378;51.796;5.808;2023-02-18T01:03:07;11.60;99.90
26803;DHT22;14378;51.796;5.808;2023-02-18T01:05:09;11.60;99.90
26803;DHT22;14378;51.796;5.808;2023-02-18T01:07:11;11.60;99.90
26803;DHT22;14378;51.796;5.808;2023-02-18T01:09:12;11.60;99.90
26803;DHT22;14378;51.796;5.808;2023-02-18T01:11:16;11.60;99.90
26803;DHT22;14378;51.796;5.808;2023-02-18T01:13:17;11.60;99.90
26803;DHT22;14378;51.796;5.808;2023-02-18T01:15:18;11.60;99.90
26803;DHT22;14378;51.796;5.808;2023-02-18T01:17:19;11.60;99.90
26803;DHT22;14378;51.796;5.808;2023-02-18T01:19:20;11.60;99.90
26803;DHT22;14378;51.796;5.808;2023-02-18T01:21:21;11.60;99.90
26803;DHT22;14378;51.796;5.808;2023-02-18T01:23:22;11.70;99.90
26803;DHT22;14378;51.796;5.808;2023-02-18T01:25:24;11.70;99.90
26803;DHT22;14378;51.796;5.808;2023-02-18T01:27:25;11.70;99.90
26803;DHT22;14378;51.796;5.808;2023-02-18T01:29:25;11.70;99.90
26803;DHT22;14378;51.796;5.808;2023-02-18T01:31:28;11.70;99.90
26803;DHT22;14378;51.796;5.808;2023-02-18T01:33:29;11.70;99.90
26803;DHT22;14378;51.796;5.808;2023-02-18T01:35:30;11.70;99.90
26803;DHT22;14378;51.796;5.808;2023-02-18T01:37:32;11.70;99.90
26803;DHT22;14378;51.796;5.808;2023-02-18T01:39:33;11.70;99.90
26803;DHT22;14378;51.796;5.808;2023-02-18T01:41:34;11.70;99.90
26803;DHT22;14378;51.796;5.808;2023-02-18T01:43:39;11.70;99.90
26803;DHT22;14378;51.796;5.808;2023-02-18T01:47:54;11.80;99.90
26803;DHT22;14378;51.796;5.808;2023-02-18T01:49:55;11.70;99.90
26803;DHT22;14378;51.796;5.808;2023-02-18T01:51:56;11.70;99.90
26803;DHT22;14378;51.796;5.808;2023-02-18T01:54:06;11.80;99.90
26803;DHT22;14378;51.796;5.808;2023-02-18T01:56:11;11.70;99.90
26803;DHT22;14378;51.796;5.808;2023-02-18T01:58:15;11.80;99.90
26803;DHT22;14378;51.796;5.808;2023-02-18T02:00:18;11.80;99.90
26803;DHT22;14378;51.796;5.808;2023-02-18T02:02:25;11.70;99.90
26803;DHT22;14378;51.796;5.808;2023-02-18T02:04:27;11.80;99.90
26803;DHT22;14378;51.796;5.808;2023-02-18T02:06:28;11.80;99.90
26803;DHT22;14378;51.796;5.808;2023-02-18T02:08:29;11.80;99.90
26803;DHT22;14378;51.796;5.808;2023-02-18T02:13:14;11.80;99.90
26803;DHT22;14378;51.796;5.808;2023-02-18T02:15:29;11.80;99.90
26803;DHT22;14378;51.796;5.808;2023-02-18T02:20:08;11.80;99.90
26803;DHT22;14378;51.796;5.808;2023-02-18T02:24:53;11.80;99.90
26803;DHT22;14378;51.796;5.808;2023-02-18T02:31:17;11.80;99.90
26803;DHT22;14378;51.796;5.808;2023-02-18T02:33:43;11.70;99.90
26803;DHT22;14378;51.796;5.808;2023-02-18T02:38:19;11.70;99.90
26803;DHT22;14378;51.796;5.808;2023-02-18T02:43:10;11.80;99.90
26803;DHT22;14378;51.796;5.808;2023-02-18T02:50:16;11.70;99.90
26803;DHT22;14378;51.796;5.808;2023-02-18T02:52:25;11.70;99.90
26803;DHT22;14378;51.796;5.808;2023-02-18T02:54:27;11.70;99.90
26803;DHT22;14378;51.796;5.808;2023-02-18T02:56:30;11.70;99.90
26803;DHT22;14378;51.796;5.808;2023-02-18T02:58:31;11.70;99.90
26803;DHT22;14378;51.796;5.808;2023-02-18T03:07:59;11.60;99.90
26803;DHT22;14378;51.796;5.808;2023-02-18T03:15:41;11.60;99.90
26803;DHT22;14378;51.796;5.808;2023-02-18T03:17:38;11.70;99.90
26803;DHT22;14378;51.796;5.808;2023-02-18T03:19:49;11.70;99.90
26803;DHT22;14378;51.796;5.808;2023-02-18T03:26:04;11.60;99.90
26803;DHT22;14378;51.796;5.808;2023-02-18T03:28:23;11.60;99.90
26803;DHT22;14378;51.796;5.808;2023-02-18T03:30:34;11.60;99.90
26803;DHT22;14378;51.796;5.808;2023-02-18T03:32:40;11.60;99.90
26803;DHT22;14378;51.796;5.808;2023-02-18T03:34:48;11.60;99.90
26803;DHT22;14378;51.796;5.808;2023-02-18T03:36:50;11.60;99.90
26803;DHT22;14378;51.796;5.808;2023-02-18T03:39:10;11.60;99.90
26803;DHT22;14378;51.796;5.808;2023-02-18T03:41:19;11.50;99.90
26803;DHT22;14378;51.796;5.808;2023-02-18T03:43:20;11.50;99.90
26803;DHT22;14378;51.796;5.808;2023-02-18T03:45:21;11.50;99.90
26803;DHT22;14378;51.796;5.808;2023-02-18T03:47:22;11.50;99.90
26803;DHT22;14378;51.796;5.808;2023-02-18T03:49:24;11.50;99.90
26803;DHT22;14378;51.796;5.808;2023-02-18T03:51:25;11.50;99.90
26803;DHT22;14378;51.796;5.808;2023-02-18T03:53:26;11.50;99.90
26803;DHT22;14378;51.796;5.808;2023-02-18T03:55:27;11.50;99.90
26803;DHT22;14378;51.796;5.808;2023-02-18T03:57:28;11.50;99.90
26803;DHT22;14378;51.796;5.808;2023-02-18T03:59:29;11.50;99.90
26803;DHT22;14378;51.796;5.808;2023-02-18T04:01:34;11.50;99.90
26803;DHT22;14378;51.796;5.808;2023-02-18T04:03:38;11.50;99.90
26803;DHT22;14378;51.796;5.808;2023-02-18T04:05:40;11.50;99.90
26803;DHT22;14378;51.796;5.808;2023-02-18T04:07:41;11.50;99.90
26803;DHT22;14378;51.796;5.808;2023-02-18T04:09:42;11.50;99.90
26803;DHT22;14378;51.796;5.808;2023-02-18T04:11:43;11.50;99.90
26803;DHT22;14378;51.796;5.808;2023-02-18T04:13:48;11.50;99.90
26803;DHT22;14378;51.796;5.808;2023-02-18T04:15:50;11.50;99.90
26803;DHT22;14378;51.796;5.808;2023-02-18T04:17:51;11.50;99.90
26803;DHT22;14378;51.796;5.808;2023-02-18T04:19:53;11.50;99.90
26803;DHT22;14378;51.796;5.808;2023-02-18T04:21:54;11.50;99.90
26803;DHT22;14378;51.796;5.808;2023-02-18T04:23:55;11.50;99.90
26803;DHT22;14378;51.796;5.808;2023-02-18T04:26:02;11.40;99.90
26803;DHT22;14378;51.796;5.808;2023-02-18T04:28:03;11.40;99.90
26803;DHT22;14378;51.796;5.808;2023-02-18T04:30:06;11.40;99.90
26803;DHT22;14378;51.796;5.808;2023-02-18T04:32:08;11.50;99.90
26803;DHT22;14378;51.796;5.808;2023-02-18T04:34:09;11.50;99.90
26803;DHT22;14378;51.796;5.808;2023-02-18T04:36:09;11.50;99.90
26803;DHT22;14378;51.796;5.808;2023-02-18T04:38:10;11.40;99.90
26803;DHT22;14378;51.796;5.808;2023-02-18T04:40:11;11.40;99.90
26803;DHT22;14378;51.796;5.808;2023-02-18T04:42:12;11.40;99.90
26803;DHT22;14378;51.796;5.808;2023-02-18T04:44:13;11.40;99.90
26803;DHT22;14378;51.796;5.808;2023-02-18T04:46:18;11.40;99.90
26803;DHT22;14378;51.796;5.808;2023-02-18T04:48:20;11.40;99.90
26803;DHT22;14378;51.796;5.808;2023-02-18T04:50:21;11.40;99.90
26803;DHT22;14378;51.796;5.808;2023-02-18T04:52:23;11.40;99.90
26803;DHT22;14378;51.796;5.808;2023-02-18T04:54:23;11.40;99.90
26803;DHT22;14378;51.796;5.808;2023-02-18T04:56:24;11.40;99.90
26803;DHT22;14378;51.796;5.808;2023-02-18T04:58:25;11.30;99.90
26803;DHT22;14378;51.796;5.808;2023-02-18T05:00:26;11.40;99.90
26803;DHT22;14378;51.796;5.808;2023-02-18T05:02:28;11.40;99.90
26803;DHT22;14378;51.796;5.808;2023-02-18T05:04:29;11.40;99.90
26803;DHT22;14378;51.796;5.808;2023-02-18T05:06:30;11.40;99.90
26803;DHT22;14378;51.796;5.808;2023-02-18T05:08:32;11.40;99.90
26803;DHT22;14378;51.796;5.808;2023-02-18T05:10:33;11.30;99.90
26803;DHT22;14378;51.796;5.808;2023-02-18T05:12:34;11.30;99.90
26803;DHT22;14378;51.796;5.808;2023-02-18T05:14:35;11.30;99.90
26803;DHT22;14378;51.796;5.808;2023-02-18T05:16:36;11.30;99.90
26803;DHT22;14378;51.796;5.808;2023-02-18T05:18:37;11.30;99.90
26803;DHT22;14378;51.796;5.808;2023-02-18T05:20:38;11.30;99.90
26803;DHT22;14378;51.796;5.808;2023-02-18T05:22:39;11.30;99.90
26803;DHT22;14378;51.796;5.808;2023-02-18T05:24:39;11.30;99.90
26803;DHT22;14378;51.796;5.808;2023-02-18T05:26:40;11.30;99.90
26803;DHT22;14378;51.796;5.808;2023-02-18T05:28:42;11.30;99.90
26803;DHT22;14378;51.796;5.808;2023-02-18T05:30:46;11.40;99.90
26803;DHT22;14378;51.796;5.808;2023-02-18T05:32:47;11.30;99.90
26803;DHT22;14378;51.796;5.808;2023-02-18T05:34:48;11.30;99.90
26803;DHT22;14378;51.796;5.808;2023-02-18T05:36:49;11.30;99.90
26803;DHT22;14378;51.796;5.808;2023-02-18T05:38:50;11.30;99.90
26803;DHT22;14378;51.796;5.808;2023-02-18T05:40:51;11.30;99.90
26803;DHT22;14378;51.796;5.808;2023-02-18T05:42:52;11.30;99.90
26803;DHT22;14378;51.796;5.808;2023-02-18T05:44:53;11.30;99.90
26803;DHT22;14378;51.796;5.808;2023-02-18T05:46:53;11.30;99.90
26803;DHT22;14378;51.796;5.808;2023-02-18T05:48:54;11.30;99.90
26803;DHT22;14378;51.796;5.808;2023-02-18T05:50:55;11.30;99.90
26803;DHT22;14378;51.796;5.808;2023-02-18T05:52:56;11.30;99.90
26803;DHT22;14378;51.796;5.808;2023-02-18T05:54:57;11.30;99.90
26803;DHT22;14378;51.796;5.808;2023-02-18T05:56:58;11.30;99.90
26803;DHT22;14378;51.796;5.808;2023-02-18T05:58:59;11.30;99.90
26803;DHT22;14378;51.796;5.808;2023-02-18T06:01:00;11.30;99.90
26803;DHT22;14378;51.796;5.808;2023-02-18T06:03:01;11.20;99.90
26803;DHT22;14378;51.796;5.808;2023-02-18T06:05:03;11.30;99.90
26803;DHT22;14378;51.796;5.808;2023-02-18T06:07:04;11.30;99.90
26803;DHT22;14378;51.796;5.808;2023-02-18T06:09:06;11.30;99.90
26803;DHT22;14378;51.796;5.808;2023-02-18T06:11:08;11.30;99.90
26803;DHT22;14378;51.796;5.808;2023-02-18T06:13:12;11.30;99.90
26803;DHT22;14378;51.796;5.808;2023-02-18T06:15:12;11.20;99.90
26803;DHT22;14378;51.796;5.808;2023-02-18T06:17:14;11.20;99.90
26803;DHT22;14378;51.796;5.808;2023-02-18T06:19:16;11.30;99.90
26803;DHT22;14378;51.796;5.808;2023-02-18T06:21:17;11.30;99.90
26803;DHT22;14378;51.796;5.808;2023-02-18T06:23:18;11.20;99.90
26803;DHT22;14378;51.796;5.808;2023-02-18T06:25:19;11.20;99.90
26803;DHT22;14378;51.796;5.808;2023-02-18T06:27:20;11.20;99.90
26803;DHT22;14378;51.796;5.808;2023-02-18T06:29:21;11.20;99.90
26803;DHT22;14378;51.796;5.808;2023-02-18T06:31:22;11.20;99.90
26803;DHT22;14378;51.796;5.808;2023-02-18T06:33:23;11.20;99.90
26803;DHT22;14378;51.796;5.808;2023-02-18T06:35:24;11.20;99.90
26803;DHT22;14378;51.796;5.808;2023-02-18T06:37:25;11.20;99.90
26803;DHT22;14378;51.796;5.808;2023-02-18T06:39:26;11.20;99.90
26803;DHT22;14378;51.796;5.808;2023-02-18T06:41:27;11.20;99.90
26803;DHT22;14378;51.796;5.808;2023-02-18T06:43:28;11.20;99.90
26803;DHT22;14378;51.796;5.808;2023-02-18T06:45:30;11.20;99.90
26803;DHT22;14378;51.796;5.808;2023-02-18T06:47:31;11.20;99.90
26803;DHT22;14378;51.796;5.808;2023-02-18T06:49:32;11.20;99.90
26803;DHT22;14378;51.796;5.808;2023-02-18T06:51:33;11.20;99.90
26803;DHT22;14378;51.796;5.808;2023-02-18T06:53:34;11.20;99.90
26803;DHT22;14378;51.796;5.808;2023-02-18T06:55:35;11.20;99.90
26803;DHT22;14378;51.796;5.808;2023-02-18T06:57:36;11.20;99.90
26803;DHT22;14378;51.796;5.808;2023-02-18T06:59:37;11.20;99.90
26803;DHT22;14378;51.796;5.808;2023-02-18T07:01:38;11.10;99.90
26803;DHT22;14378;51.796;5.808;2023-02-18T07:03:39;11.20;99.90
26803;DHT22;14378;51.796;5.808;2023-02-18T07:05:41;11.20;99.90
26803;DHT22;14378;51.796;5.808;2023-02-18T07:07:42;11.20;99.90
26803;DHT22;14378;51.796;5.808;2023-02-18T07:09:43;11.10;99.90
26803;DHT22;14378;51.796;5.808;2023-02-18T07:11:46;11.10;99.90
26803;DHT22;14378;51.796;5.808;2023-02-18T07:13:50;11.10;99.90
26803;DHT22;14378;51.796;5.808;2023-02-18T07:15:51;11.20;99.90
26803;DHT22;14378;51.796;5.808;2023-02-18T07:17:53;11.10;99.90
26803;DHT22;14378;51.796;5.808;2023-02-18T07:19:53;11.10;99.90
26803;DHT22;14378;51.796;5.808;2023-02-18T07:21:55;11.10;99.90
26803;DHT22;14378;51.796;5.808;2023-02-18T07:23:57;11.10;99.90
26803;DHT22;14378;51.796;5.808;2023-02-18T07:26:07;11.10;99.90
26803;DHT22;14378;51.796;5.808;2023-02-18T07:28:09;11.10;99.90
26803;DHT22;14378;51.796;5.808;2023-02-18T07:30:10;11.10;99.90
26803;DHT22;14378;51.796;5.808;2023-02-18T07:32:12;11.10;99.90
26803;DHT22;14378;51.796;5.808;2023-02-18T07:34:15;11.10;99.90
26803;DHT22;14378;51.796;5.808;2023-02-18T07:36:17;11.10;99.90
26803;DHT22;14378;51.796;5.808;2023-02-18T07:38:17;11.10;99.90
26803;DHT22;14378;51.796;5.808;2023-02-18T07:40:20;11.10;99.90
26803;DHT22;14378;51.796;5.808;2023-02-18T07:42:28;11.00;99.90
26803;DHT22;14378;51.796;5.808;2023-02-18T07:44:29;11.10;99.90
26803;DHT22;14378;51.796;5.808;2023-02-18T07:46:30;11.00;99.90
26803;DHT22;14378;51.796;5.808;2023-02-18T07:48:34;11.10;99.90
26803;DHT22;14378;51.796;5.808;2023-02-18T07:50:39;11.00;99.90
26803;DHT22;14378;51.796;5.808;2023-02-18T07:52:41;11.00;99.90
26803;DHT22;14378;51.796;5.808;2023-02-18T07:54:42;11.00;99.90
26803;DHT22;14378;51.796;5.808;2023-02-18T07:56:45;11.00;99.90
26803;DHT22;14378;51.796;5.808;2023-02-18T07:58:45;11.00;99.90
26803;DHT22;14378;51.796;5.808;2023-02-18T08:00:47;11.00;99.90
26803;DHT22;14378;51.796;5.808;2023-02-18T08:02:50;11.00;99.90
26803;DHT22;14378;51.796;5.808;2023-02-18T08:04:51;11.00;99.90
26803;DHT22;14378;51.796;5.808;2023-02-18T08:06:55;11.00;99.90
26803;DHT22;14378;51.796;5.808;2023-02-18T08:09:02;11.00;99.90
26803;DHT22;14378;51.796;5.808;2023-02-18T08:11:05;11.00;99.90
26803;DHT22;14378;51.796;5.808;2023-02-18T08:13:08;11.10;99.90
26803;DHT22;14378;51.796;5.808;2023-02-18T08:15:10;11.10;99.90
26803;DHT22;14378;51.796;5.808;2023-02-18T08:17:11;11.00;99.90
26803;DHT22;14378;51.796;5.808;2023-02-18T08:19:12;11.00;99.90
26803;DHT22;14378;51.796;5.808;2023-02-18T08:21:13;11.00;99.90
26803;DHT22;14378;51.796;5.808;2023-02-18T08:23:18;11.10;99.90
26803;DHT22;14378;51.796;5.808;2023-02-18T08:25:20;11.00;99.90
26803;DHT22;14378;51.796;5.808;2023-02-18T08:27:22;10.90;99.90
26803;DHT22;14378;51.796;5.808;2023-02-18T08:29:24;11.00;99.90
26803;DHT22;14378;51.796;5.808;2023-02-18T08:31:28;10.90;99.90
26803;DHT22;14378;51.796;5.808;2023-02-18T08:33:29;10.90;99.90
26803;DHT22;14378;51.796;5.808;2023-02-18T08:35:30;11.00;99.90
26803;DHT22;14378;51.796;5.808;2023-02-18T08:37:31;11.00;99.90
26803;DHT22;14378;51.796;5.808;2023-02-18T08:39:36;10.90;99.90
26803;DHT22;14378;51.796;5.808;2023-02-18T08:41:38;10.90;99.90
26803;DHT22;14378;51.796;5.808;2023-02-18T08:43:39;11.00;99.90
26803;DHT22;14378;51.796;5.808;2023-02-18T08:45:42;10.90;99.90
26803;DHT22;14378;51.796;5.808;2023-02-18T08:47:43;11.00;99.90
26803;DHT22;14378;51.796;5.808;2023-02-18T08:49:44;11.00;99.90
26803;DHT22;14378;51.796;5.808;2023-02-18T08:51:49;11.00;99.90
26803;DHT22;14378;51.796;5.808;2023-02-18T08:53:50;11.00;99.90
26803;DHT22;14378;51.796;5.808;2023-02-18T08:55:51;11.00;99.90
26803;DHT22;14378;51.796;5.808;2023-02-18T08:57:52;11.00;99.90
26803;DHT22;14378;51.796;5.808;2023-02-18T08:59:53;11.00;99.90
26803;DHT22;14378;51.796;5.808;2023-02-18T09:01:54;10.90;99.90
26803;DHT22;14378;51.796;5.808;2023-02-18T09:03:56;10.90;99.90
26803;DHT22;14378;51.796;5.808;2023-02-18T09:05:58;10.90;99.90
26803;DHT22;14378;51.796;5.808;2023-02-18T09:08:00;10.90;99.90
26803;DHT22;14378;51.796;5.808;2023-02-18T09:10:03;10.90;99.90
26803;DHT22;14378;51.796;5.808;2023-02-18T09:12:04;10.80;99.90
26803;DHT22;14378;51.796;5.808;2023-02-18T09:14:06;10.80;99.90
26803;DHT22;14378;51.796;5.808;2023-02-18T09:16:15;10.80;99.90
26803;DHT22;14378;51.796;5.808;2023-02-18T09:18:19;10.80;99.90
26803;DHT22;14378;51.796;5.808;2023-02-18T09:20:22;10.80;99.90
26803;DHT22;14378;51.796;5.808;2023-02-18T09:22:26;10.80;99.90
26803;DHT22;14378;51.796;5.808;2023-02-18T09:24:28;10.80;99.90
26803;DHT22;14378;51.796;5.808;2023-02-18T09:26:32;10.80;99.90
26803;DHT22;14378;51.796;5.808;2023-02-18T09:28:35;10.70;99.90
26803;DHT22;14378;51.796;5.808;2023-02-18T09:30:38;10.70;99.90
26803;DHT22;14378;51.796;5.808;2023-02-18T09:32:39;10.70;99.90
26803;DHT22;14378;51.796;5.808;2023-02-18T09:34:40;10.70;99.90
26803;DHT22;14378;51.796;5.808;2023-02-18T09:36:41;10.70;99.90
26803;DHT22;14378;51.796;5.808;2023-02-18T09:38:42;10.60;99.90
26803;DHT22;14378;51.796;5.808;2023-02-18T09:40:49;10.70;99.90
26803;DHT22;14378;51.796;5.808;2023-02-18T09:42:53;10.60;99.90
26803;DHT22;14378;51.796;5.808;2023-02-18T09:44:58;10.60;99.90
26803;DHT22;14378;51.796;5.808;2023-02-18T09:47:09;10.60;99.90
26803;DHT22;14378;51.796;5.808;2023-02-18T09:49:19;10.60;99.90
26803;DHT22;14378;51.796;5.808;2023-02-18T09:51:22;10.70;99.90
26803;DHT22;14378;51.796;5.808;2023-02-18T09:53:24;10.60;99.90
26803;DHT22;14378;51.796;5.808;2023-02-18T09:55:46;10.70;99.90
26803;DHT22;14378;51.796;5.808;2023-02-18T09:57:53;10.60;99.90
26803;DHT22;14378;51.796;5.808;2023-02-18T10:00:05;10.80;99.90
26803;DHT22;14378;51.796;5.808;2023-02-18T10:02:22;10.70;99.90
26803;DHT22;14378;51.796;5.808;2023-02-18T10:04:29;10.60;99.90
26803;DHT22;14378;51.796;5.808;2023-02-18T10:06:33;10.70;99.90
26803;DHT22;14378;51.796;5.808;2023-02-18T10:08:37;10.70;99.90
26803;DHT22;14378;51.796;5.808;2023-02-18T10:10:44;10.70;99.90
26803;DHT22;14378;51.796;5.808;2023-02-18T10:12:46;10.70;99.90
26803;DHT22;14378;51.796;5.808;2023-02-18T10:14:54;10.70;99.90
26803;DHT22;14378;51.796;5.808;2023-02-18T10:16:56;10.80;99.90
26803;DHT22;14378;51.796;5.808;2023-02-18T10:19:03;10.70;99.90
26803;DHT22;14378;51.796;5.808;2023-02-18T10:21:14;10.70;99.90
26803;DHT22;14378;51.796;5.808;2023-02-18T10:23:19;10.80;99.90
26803;DHT22;14378;51.796;5.808;2023-02-18T10:25:22;10.70;99.90
26803;DHT22;14378;51.796;5.808;2023-02-18T10:27:36;10.80;99.90
26803;DHT22;14378;51.796;5.808;2023-02-18T10:29:38;10.80;99.90
26803;DHT22;14378;51.796;5.808;2023-02-18T10:36:39;10.90;99.90
26803;DHT22;14378;51.796;5.808;2023-02-18T10:43:37;10.90;99.90
26803;DHT22;14378;51.796;5.808;2023-02-18T10:48:28;11.00;99.90
26803;DHT22;14378;51.796;5.808;2023-02-18T10:50:44;11.00;99.90
26803;DHT22;14378;51.796;5.808;2023-02-18T10:52:49;11.00;99.90
26803;DHT22;14378;51.796;5.808;2023-02-18T10:54:58;11.00;99.90
26803;DHT22;14378;51.796;5.808;2023-02-18T10:56:59;11.00;99.90
26803;DHT22;14378;51.796;5.808;2023-02-18T10:59:26;11.00;99.90
26803;DHT22;14378;51.796;5.808;2023-02-18T11:01:31;11.00;99.90
26803;DHT22;14378;51.796;5.808;2023-02-18T11:03:46;11.10;99.90
26803;DHT22;14378;51.796;5.808;2023-02-18T11:05:55;11.00;99.90
26803;DHT22;14378;51.796;5.808;2023-02-18T11:07:57;11.00;99.90
26803;DHT22;14378;51.796;5.808;2023-02-18T11:10:13;11.00;99.90
26803;DHT22;14378;51.796;5.808;2023-02-18T11:12:21;10.90;99.90
26803;DHT22;14378;51.796;5.808;2023-02-18T11:14:37;10.90;99.90
26803;DHT22;14378;51.796;5.808;2023-02-18T11:16:44;10.90;99.90
26803;DHT22;14378;51.796;5.808;2023-02-18T11:18:46;10.90;99.90
26803;DHT22;14378;51.796;5.808;2023-02-18T11:20:59;10.90;99.90
26803;DHT22;14378;51.796;5.808;2023-02-18T11:25:23;10.90;99.90
26803;DHT22;14378;51.796;5.808;2023-02-18T11:27:41;11.00;99.90
26803;DHT22;14378;51.796;5.808;2023-02-18T11:29:43;10.90;99.90
26803;DHT22;14378;51.796;5.808;2023-02-18T11:31:47;11.00;99.90
26803;DHT22;14378;51.796;5.808;2023-02-18T11:33:55;11.00;99.90
26803;DHT22;14378;51.796;5.808;2023-02-18T11:35:58;11.00;99.90
26803;DHT22;14378;51.796;5.808;2023-02-18T11:38:20;11.10;99.90
26803;DHT22;14378;51.796;5.808;2023-02-18T11:40:33;11.20;99.90
26803;DHT22;14378;51.796;5.808;2023-02-18T11:42:34;11.20;99.90
26803;DHT22;14378;51.796;5.808;2023-02-18T11:44:51;11.20;99.90
26803;DHT22;14378;51.796;5.808;2023-02-18T11:49:21;11.20;99.90
26803;DHT22;14378;51.796;5.808;2023-02-18T11:51:33;11.20;99.90
26803;DHT22;14378;51.796;5.808;2023-02-18T11:53:38;11.30;99.90
26803;DHT22;14378;51.796;5.808;2023-02-18T11:55:53;11.40;99.90
26803;DHT22;14378;51.796;5.808;2023-02-18T11:58:02;11.40;99.90
26803;DHT22;14378;51.796;5.808;2023-02-18T12:02:43;11.50;99.90
26803;DHT22;14378;51.796;5.808;2023-02-18T12:05:04;11.50;99.90
26803;DHT22;14378;51.796;5.808;2023-02-18T12:07:28;11.60;99.90
26803;DHT22;14378;51.796;5.808;2023-02-18T12:09:41;11.60;99.90
26803;DHT22;14378;51.796;5.808;2023-02-18T12:11:48;11.60;99.90
26803;DHT22;14378;51.796;5.808;2023-02-18T12:13:54;11.60;99.90
26803;DHT22;14378;51.796;5.808;2023-02-18T12:16:19;11.60;99.90
26803;DHT22;14378;51.796;5.808;2023-02-18T12:18:56;11.60;99.90
26803;DHT22;14378;51.796;5.808;2023-02-18T12:41:18;11.80;99.90
26803;DHT22;14378;51.796;5.808;2023-02-18T12:47:48;11.90;99.90
26803;DHT22;14378;51.796;5.808;2023-02-18T12:52:50;12.00;99.90
26803;DHT22;14378;51.796;5.808;2023-02-18T13:09:37;12.20;99.90
26803;DHT22;14378;51.796;5.808;2023-02-18T13:12:12;12.20;99.90
26803;DHT22;14378;51.796;5.808;2023-02-18T13:14:29;12.20;99.90
26803;DHT22;14378;51.796;5.808;2023-02-18T13:16:31;12.20;99.90
26803;DHT22;14378;51.796;5.808;2023-02-18T13:21:12;12.30;99.90
26803;DHT22;14378;51.796;5.808;2023-02-18T13:23:20;12.30;99.90
26803;DHT22;14378;51.796;5.808;2023-02-18T13:25:22;12.30;99.90
26803;DHT22;14378;51.796;5.808;2023-02-18T13:32:26;12.40;99.90
26803;DHT22;14378;51.796;5.808;2023-02-18T13:34:34;12.40;99.90
26803;DHT22;14378;51.796;5.808;2023-02-18T13:36:49;12.40;99.90
26803;DHT22;14378;51.796;5.808;2023-02-18T13:39:05;12.40;99.90
26803;DHT22;14378;51.796;5.808;2023-02-18T13:41:07;12.30;99.90
26803;DHT22;14378;51.796;5.808;2023-02-18T13:43:33;12.30;99.90
26803;DHT22;14378;51.796;5.808;2023-02-18T13:45:34;12.30;99.90
26803;DHT22;14378;51.796;5.808;2023-02-18T13:47:44;12.30;99.90
26803;DHT22;14378;51.796;5.808;2023-02-18T13:49:45;12.30;99.90
26803;DHT22;14378;51.796;5.808;2023-02-18T13:51:50;12.30;99.90
26803;DHT22;14378;51.796;5.808;2023-02-18T13:53:59;12.40;99.90
26803;DHT22;14378;51.796;5.808;2023-02-18T13:56:09;12.30;99.90
26803;DHT22;14378;51.796;5.808;2023-02-18T13:58:44;12.30;99.90
26803;DHT22;14378;51.796;5.808;2023-02-18T14:01:00;12.30;99.90
26803;DHT22;14378;51.796;5.808;2023-02-18T14:05:40;12.30;99.90
26803;DHT22;14378;51.796;5.808;2023-02-18T14:10:36;12.40;99.90
26803;DHT22;14378;51.796;5.808;2023-02-18T14:12:39;12.40;99.90
26803;DHT22;14378;51.796;5.808;2023-02-18T14:14:41;12.30;99.90
26803;DHT22;14378;51.796;5.808;2023-02-18T14:19:31;12.30;99.90
26803;DHT22;14378;51.796;5.808;2023-02-18T14:21:40;12.40;99.90
26803;DHT22;14378;51.796;5.808;2023-02-18T14:23:54;12.30;99.90
26803;DHT22;14378;51.796;5.808;2023-02-18T14:30:41;12.40;99.90
26803;DHT22;14378;51.796;5.808;2023-02-18T14:32:43;12.50;99.90
26803;DHT22;14378;51.796;5.808;2023-02-18T14:37:14;12.50;99.90
26803;DHT22;14378;51.796;5.808;2023-02-18T14:42:15;12.60;99.90
26803;DHT22;14378;51.796;5.808;2023-02-18T14:44:31;12.60;99.90
26803;DHT22;14378;51.796;5.808;2023-02-18T14:46:43;12.60;99.90
26803;DHT22;14378;51.796;5.808;2023-02-18T14:48:59;12.60;99.90
26803;DHT22;14378;51.796;5.808;2023-02-18T14:51:04;12.70;99.90
26803;DHT22;14378;51.796;5.808;2023-02-18T14:53:10;12.90;99.90
26803;DHT22;14378;51.796;5.808;2023-02-18T14:55:48;13.10;99.90
26803;DHT22;14378;51.796;5.808;2023-02-18T14:57:58;13.20;99.90
26803;DHT22;14378;51.796;5.808;2023-02-18T15:00:00;13.30;99.90
26803;DHT22;14378;51.796;5.808;2023-02-18T15:02:01;13.30;99.90
26803;DHT22;14378;51.796;5.808;2023-02-18T15:04:03;13.40;99.90
26803;DHT22;14378;51.796;5.808;2023-02-18T15:06:41;13.50;99.90
26803;DHT22;14378;51.796;5.808;2023-02-18T15:08:41;13.50;99.90
26803;DHT22;14378;51.796;5.808;2023-02-18T15:10:58;13.50;99.90
26803;DHT22;14378;51.796;5.808;2023-02-18T15:13:02;13.50;99.90
26803;DHT22;14378;51.796;5.808;2023-02-18T15:15:05;13.60;99.90
26803;DHT22;14378;51.796;5.808;2023-02-18T15:17:14;13.70;99.90
26803;DHT22;14378;51.796;5.808;2023-02-18T15:19:23;13.70;99.90
26803;DHT22;14378;51.796;5.808;2023-02-18T15:21:29;13.80;99.90
26803;DHT22;14378;51.796;5.808;2023-02-18T15:23:34;13.80;99.90